createdAt,value
2019-05-13T00:01:15.225Z,31.20
2019-05-13T00:03:44.758Z,31.30
2019-05-13T00:06:14.356Z,31.50
2019-05-13T00:08:44.078Z,31.70
2019-05-13T00:11:14.182Z,31.60
2019-05-13T00:13:44.438Z,31.80
2019-05-13T00:16:14.250Z,31.90
2019-05-13T00:18:44.398Z,32.30
2019-05-13T00:21:14.227Z,32.50
2019-05-13T00:23:44.226Z,32.60
2019-05-13T00:26:14.226Z,32.60
2019-05-13T00:28:44.797Z,32.70
2019-05-13T00:31:14.363Z,32.60
2019-05-13T00:33:44.973Z,32.90
2019-05-13T00:36:14.770Z,33.10
2019-05-13T00:38:44.991Z,33.10
2019-05-13T00:41:14.634Z,33.20
2019-05-13T00:43:44.577Z,33.20
2019-05-13T00:46:14.343Z,33.30
2019-05-13T00:48:44.085Z,33.50
2019-05-13T00:51:14.233Z,33.50
2019-05-13T00:53:44.324Z,34.20
2019-05-13T00:56:14.222Z,33.60
2019-05-13T00:58:43.877Z,33.70
2019-05-13T01:01:14.060Z,33.60
2019-05-13T01:03:44.232Z,33.70
2019-05-13T01:06:13.963Z,33.70
2019-05-13T01:08:44.239Z,33.60
2019-05-13T01:11:15.007Z,33.70
2019-05-13T01:13:44.556Z,33.70
2019-05-13T01:16:14.734Z,33.80
2019-05-13T01:18:44.279Z,33.70
2019-05-13T01:21:13.830Z,33.70
2019-05-13T01:23:43.856Z,33.80
2019-05-13T01:26:14.151Z,33.80
2019-05-13T01:28:43.930Z,33.80
2019-05-13T01:31:13.461Z,33.80
2019-05-13T01:33:44.462Z,33.80
2019-05-13T01:36:14.209Z,33.70
2019-05-13T01:38:43.788Z,33.60
2019-05-13T01:41:13.717Z,33.50
2019-05-13T01:43:44.139Z,33.40
2019-05-13T01:46:14.078Z,33.40
2019-05-13T01:48:43.822Z,33.40
2019-05-13T01:51:14.516Z,33.20
2019-05-13T01:53:44.213Z,33.20
2019-05-13T01:56:14.102Z,33.20
2019-05-13T01:58:45.037Z,33.20
2019-05-13T02:01:14.594Z,33.10
2019-05-13T02:03:44.404Z,33.10
2019-05-13T02:06:14.267Z,33.20
2019-05-13T02:08:44.125Z,33.30
2019-05-13T02:11:13.925Z,33.40
2019-05-13T02:13:44.668Z,33.40
2019-05-13T02:16:15.490Z,33.40
2019-05-13T02:18:45.036Z,33.50
2019-05-13T02:21:14.571Z,33.50
2019-05-13T02:23:44.670Z,33.60
2019-05-13T02:26:14.235Z,33.50
2019-05-13T02:28:44.356Z,33.60
2019-05-13T02:31:22.902Z,33.70
2019-05-13T02:33:45.510Z,33.90
2019-05-13T02:36:15.196Z,33.80
2019-05-13T02:38:44.784Z,33.80
2019-05-13T02:41:14.428Z,34.00
2019-05-13T02:43:45.154Z,33.90
2019-05-13T02:46:15.162Z,34.00
2019-05-13T02:48:44.687Z,34.10
2019-05-13T02:51:14.210Z,34.30
2019-05-13T02:53:43.898Z,34.20
2019-05-13T02:56:37.683Z,34.30
2019-05-13T02:59:07.280Z,34.30
2019-05-13T03:01:37.791Z,34.30
2019-05-13T03:04:07.451Z,34.40
2019-05-13T03:06:36.976Z,34.50
2019-05-13T03:09:07.839Z,34.60
2019-05-13T03:11:37.453Z,34.60
2019-05-13T03:14:06.973Z,34.60
2019-05-13T03:17:04.437Z,35.20
2019-05-13T03:19:33.967Z,34.80
2019-05-13T03:22:03.545Z,34.70
2019-05-13T03:24:33.428Z,34.80
2019-05-13T03:27:04.068Z,34.90
2019-05-13T03:29:34.353Z,35.00
2019-05-13T03:32:17.661Z,35.00
2019-05-13T03:34:47.223Z,35.10
2019-05-13T03:37:16.946Z,35.10
2019-05-13T03:39:46.837Z,36.00
2019-05-13T03:42:16.651Z,36.20
2019-05-13T03:44:46.193Z,36.20
2019-05-13T03:47:15.729Z,36.30
2019-05-13T03:49:45.264Z,37.10
2019-05-13T03:52:14.843Z,36.30
2019-05-13T03:54:52.809Z,36.20
2019-05-13T03:57:53.285Z,36.40
2019-05-13T04:00:44.978Z,36.40
2019-05-13T04:03:14.807Z,36.30
2019-05-13T04:05:44.407Z,36.40
2019-05-13T04:08:13.934Z,36.30
2019-05-13T04:10:43.465Z,36.50
2019-05-13T04:13:13.294Z,36.40
2019-05-13T04:15:42.999Z,36.50
2019-05-13T04:18:13.050Z,36.70
2019-05-13T04:20:42.661Z,36.80
2019-05-13T04:23:12.947Z,36.80
2019-05-13T04:25:44.885Z,36.80
2019-05-13T04:28:14.948Z,36.90
2019-05-13T04:30:46.710Z,36.80
2019-05-13T04:33:22.612Z,36.90
2019-05-13T04:35:53.011Z,37.00
2019-05-13T04:38:23.044Z,36.90
2019-05-13T04:40:53.180Z,37.00
2019-05-13T04:43:23.755Z,37.10
2019-05-13T04:45:53.547Z,37.00
2019-05-13T04:48:23.246Z,37.10
2019-05-13T04:50:55.696Z,37.30
2019-05-13T04:53:25.473Z,37.40
2019-05-13T04:55:55.000Z,37.20
2019-05-13T04:58:24.786Z,36.60
2019-05-13T05:01:23.472Z,37.50
2019-05-13T05:03:58.868Z,38.40
2019-05-13T05:06:57.119Z,38.30
2019-05-13T05:10:29.210Z,38.20
2019-05-13T05:13:17.148Z,37.20
2019-05-13T05:16:24.387Z,36.10
2019-05-13T05:19:31.859Z,34.10
2019-05-13T05:22:46.731Z,32.00
2019-05-13T05:25:29.316Z,30.20
2019-05-13T05:28:58.803Z,28.90
2019-05-13T05:32:12.368Z,28.90
2019-05-13T05:34:57.699Z,29.90
2019-05-13T05:38:12.138Z,30.00
2019-05-13T05:40:42.634Z,29.80
2019-05-13T05:43:12.385Z,29.30
2019-05-13T05:45:42.318Z,28.90
2019-05-13T05:48:11.962Z,28.10
2019-05-13T05:50:42.469Z,27.30
2019-05-13T05:53:12.906Z,26.60
2019-05-13T05:55:43.230Z,25.80
2019-05-13T05:58:12.908Z,25.30
2019-05-13T06:00:52.047Z,24.70
2019-05-13T06:03:22.199Z,24.30
2019-05-13T06:05:51.981Z,23.70
2019-05-13T06:08:22.230Z,23.60
2019-05-13T06:10:53.834Z,23.30
2019-05-13T06:13:23.719Z,23.00
2019-05-13T06:15:53.871Z,21.90
2019-05-13T06:18:23.445Z,21.90
2019-05-13T06:20:53.726Z,21.90
2019-05-13T06:23:24.516Z,21.70
2019-05-13T06:25:54.243Z,21.10
2019-05-13T06:28:23.899Z,20.50
2019-05-13T06:30:53.582Z,19.70
2019-05-13T06:33:23.262Z,19.40
2019-05-13T06:35:52.842Z,19.40
2019-05-13T06:38:22.977Z,19.50
2019-05-13T06:41:02.804Z,19.00
2019-05-13T06:43:23.786Z,18.40
2019-05-13T06:45:54.003Z,17.90
2019-05-13T06:48:23.578Z,18.00
2019-05-13T06:50:53.248Z,17.90
2019-05-13T06:53:23.231Z,17.50
2019-05-13T06:55:53.726Z,17.30
2019-05-13T06:58:23.535Z,16.80
2019-05-13T07:00:57.656Z,16.70
2019-05-13T07:03:25.019Z,16.70
2019-05-13T07:05:54.906Z,16.70
2019-05-13T07:08:24.704Z,16.30
2019-05-13T07:10:54.242Z,15.90
2019-05-13T07:13:23.892Z,15.90
2019-05-13T07:15:53.512Z,15.80
2019-05-13T07:18:23.262Z,15.60
2019-05-13T07:20:53.331Z,15.30
2019-05-13T07:23:23.737Z,15.10
2019-05-13T07:25:54.005Z,15.00
2019-05-13T07:28:23.637Z,14.80
2019-05-13T07:30:53.392Z,14.60
2019-05-13T07:33:23.062Z,14.90
2019-05-13T07:35:58.177Z,14.80
2019-05-13T07:38:24.133Z,14.20
2019-05-13T07:41:01.602Z,14.00
2019-05-13T07:43:31.996Z,13.60
2019-05-13T07:46:02.378Z,13.30
2019-05-13T07:48:32.568Z,13.10
2019-05-13T07:51:04.594Z,13.00
2019-05-13T07:53:34.375Z,12.80
2019-05-13T07:56:04.270Z,13.10
2019-05-13T07:58:36.993Z,13.10
2019-05-13T08:01:05.482Z,12.80
2019-05-13T08:03:35.046Z,12.70
2019-05-13T08:06:04.891Z,12.60
2019-05-13T08:08:34.707Z,12.40
2019-05-13T08:11:04.498Z,12.10
2019-05-13T08:13:34.402Z,11.90
2019-05-13T08:16:04.926Z,11.60
2019-05-13T08:18:34.554Z,11.50
2019-05-13T08:21:04.261Z,11.30
2019-05-13T08:23:33.798Z,11.30
2019-05-13T08:26:03.421Z,11.40
2019-05-13T08:28:33.442Z,11.60
2019-05-13T08:31:03.036Z,11.40
2019-05-13T08:33:32.600Z,11.30
2019-05-13T08:36:02.467Z,11.10
2019-05-13T08:38:32.331Z,11.20
2019-05-13T08:41:02.331Z,10.90
2019-05-13T08:43:32.170Z,10.60
2019-05-13T08:46:02.542Z,9.70
2019-05-13T08:48:32.511Z,9.90
2019-05-13T08:51:03.136Z,10.30
2019-05-13T08:53:33.274Z,10.50
2019-05-13T08:56:02.947Z,10.80
2019-05-13T08:58:32.582Z,10.90
2019-05-13T09:01:02.619Z,10.80
2019-05-13T09:03:32.761Z,10.50
2019-05-13T09:06:03.567Z,10.60
2019-05-13T09:08:33.496Z,10.80
2019-05-13T09:11:03.147Z,10.70
2019-05-13T09:13:33.209Z,10.90
2019-05-13T09:16:04.026Z,11.10
2019-05-13T09:18:35.022Z,10.70
2019-05-13T09:21:04.581Z,10.70
2019-05-13T09:23:34.884Z,10.20
2019-05-13T09:26:04.435Z,10.30
2019-05-13T09:28:34.277Z,10.30
2019-05-13T09:31:04.185Z,10.40
2019-05-13T09:33:34.109Z,10.50
2019-05-13T09:36:04.062Z,10.50
2019-05-13T09:38:33.836Z,10.40
2019-05-13T09:41:03.543Z,10.40
2019-05-13T09:43:33.418Z,10.10
2019-05-13T09:46:03.327Z,10.30
2019-05-13T09:48:33.304Z,10.50
2019-05-13T09:51:03.495Z,10.70
2019-05-13T09:53:33.026Z,10.50
2019-05-13T09:56:02.734Z,10.20
2019-05-13T09:58:33.180Z,10.40
2019-05-13T10:01:03.080Z,10.30
2019-05-13T10:03:33.423Z,10.20
2019-05-13T10:06:04.091Z,9.80
2019-05-13T10:08:34.235Z,9.80
2019-05-13T10:11:04.045Z,9.70
2019-05-13T10:13:33.622Z,9.10
2019-05-13T10:16:03.288Z,8.80
2019-05-13T10:18:33.244Z,8.90
2019-05-13T10:21:03.392Z,8.50
2019-05-13T10:23:33.443Z,8.60
2019-05-13T10:26:05.522Z,8.50
2019-05-13T10:28:35.078Z,8.50
2019-05-13T10:31:05.217Z,8.20
2019-05-13T10:33:34.918Z,8.40
2019-05-13T10:36:04.479Z,8.20
2019-05-13T10:38:34.202Z,8.10
2019-05-13T10:41:04.000Z,8.40
2019-05-13T10:43:39.053Z,8.60
2019-05-13T10:46:06.442Z,8.30
2019-05-13T10:48:36.079Z,8.60
2019-05-13T10:51:06.546Z,8.50
2019-05-13T10:53:36.541Z,8.50
2019-05-13T10:56:06.115Z,8.60
2019-05-13T10:58:36.078Z,8.70
2019-05-13T11:01:05.791Z,8.50
2019-05-13T11:03:36.419Z,8.60
2019-05-13T11:06:06.635Z,8.20
2019-05-13T11:08:36.401Z,8.50
2019-05-13T11:11:06.451Z,8.70
2019-05-13T11:13:54.056Z,9.00
2019-05-13T11:16:08.023Z,9.20
2019-05-13T11:18:38.016Z,9.20
2019-05-13T11:21:07.799Z,9.30
2019-05-13T11:23:39.035Z,9.50
2019-05-13T11:26:08.625Z,9.80
2019-05-13T11:28:38.809Z,10.20
2019-05-13T11:31:08.659Z,10.30
2019-05-13T11:33:38.504Z,10.10
2019-05-13T11:36:08.158Z,10.00
2019-05-13T11:38:38.018Z,10.10
2019-05-13T11:41:07.862Z,10.20
2019-05-13T11:43:37.501Z,10.40
2019-05-13T11:46:07.395Z,10.40
2019-05-13T11:48:36.962Z,10.50
2019-05-13T11:51:06.918Z,10.70
2019-05-13T11:53:37.722Z,11.00
2019-05-13T11:56:08.016Z,11.10
2019-05-13T11:58:38.022Z,11.10
2019-05-13T12:01:07.781Z,11.20
2019-05-13T12:03:37.610Z,11.30
2019-05-13T12:06:07.269Z,11.60
2019-05-13T12:08:36.879Z,11.60
2019-05-13T12:11:06.706Z,11.80
2019-05-13T12:13:36.665Z,12.00
2019-05-13T12:16:06.524Z,12.10
2019-05-13T12:18:43.177Z,12.20
2019-05-13T12:21:12.304Z,12.30
2019-05-13T12:23:43.597Z,12.00
2019-05-13T12:26:13.974Z,11.90
2019-05-13T12:28:43.802Z,11.80
2019-05-13T12:31:13.712Z,11.90
2019-05-13T12:33:44.023Z,12.00
2019-05-13T12:36:17.981Z,12.10
2019-05-13T12:38:45.178Z,12.00
2019-05-13T12:41:14.890Z,12.30
2019-05-13T12:43:45.061Z,12.60
2019-05-13T12:46:14.637Z,12.40
2019-05-13T12:48:44.378Z,12.50
2019-05-13T12:51:13.927Z,12.70
2019-05-13T12:53:43.875Z,12.60
2019-05-13T12:56:14.791Z,12.50
2019-05-13T12:58:44.416Z,12.10
2019-05-13T13:01:14.370Z,12.10
2019-05-13T13:03:44.030Z,12.20
2019-05-13T13:06:31.102Z,12.20
2019-05-13T13:08:49.246Z,12.50
2019-05-13T13:11:17.001Z,12.90
2019-05-13T13:13:58.609Z,13.00
2019-05-13T13:16:20.811Z,13.10
2019-05-13T13:18:52.090Z,12.90
2019-05-13T13:21:24.313Z,13.10
2019-05-13T13:23:53.534Z,13.10
2019-05-13T13:26:23.237Z,13.30
2019-05-13T13:28:55.767Z,13.40
2019-05-13T13:31:25.431Z,13.30
2019-05-13T13:33:55.845Z,13.00
2019-05-13T13:36:25.574Z,13.00
2019-05-13T13:38:56.414Z,13.40
2019-05-13T13:41:26.083Z,13.70
2019-05-13T13:43:55.758Z,14.00
2019-05-13T13:46:54.827Z,14.30
2019-05-13T13:49:23.234Z,14.30
2019-05-13T13:51:53.489Z,14.30
2019-05-13T13:54:23.103Z,14.30
2019-05-13T13:56:55.919Z,14.30
2019-05-13T13:59:25.186Z,14.10
2019-05-13T14:01:55.488Z,14.00
2019-05-13T14:04:26.610Z,14.00
2019-05-13T14:09:28.174Z,14.20
2019-05-13T14:11:58.158Z,14.30
2019-05-13T14:14:28.098Z,14.40
2019-05-13T14:16:57.750Z,14.50
2019-05-13T14:19:27.371Z,14.30
2019-05-13T14:21:58.866Z,14.20
2019-05-13T14:24:28.433Z,14.20
2019-05-13T14:26:58.055Z,14.60
2019-05-13T14:29:38.599Z,14.70
2019-05-13T14:32:01.344Z,14.90
2019-05-13T14:34:31.959Z,14.80
2019-05-13T14:37:01.652Z,14.90
2019-05-13T14:39:31.977Z,14.90
2019-05-13T14:42:03.267Z,15.20
2019-05-13T14:44:33.253Z,15.20
2019-05-13T14:47:02.960Z,15.10
2019-05-13T14:49:33.624Z,15.00
2019-05-13T14:52:03.209Z,15.30
2019-05-13T14:54:32.752Z,15.00
2019-05-13T14:57:02.618Z,14.70
2019-05-13T14:59:32.496Z,14.60
2019-05-13T15:02:02.328Z,14.50
2019-05-13T15:04:32.722Z,14.50
2019-05-13T15:07:02.442Z,14.40
2019-05-13T15:09:32.738Z,14.50
2019-05-13T15:12:02.633Z,14.30
2019-05-13T15:14:32.341Z,14.40
2019-05-13T15:17:07.183Z,14.50
2019-05-13T15:19:34.295Z,14.50
2019-05-13T15:22:04.464Z,14.20
2019-05-13T15:24:34.644Z,14.00
2019-05-13T15:27:04.242Z,13.70
2019-05-13T15:29:34.964Z,13.30
2019-05-13T15:32:04.671Z,13.30
2019-05-13T15:34:34.280Z,13.50
2019-05-13T15:37:04.103Z,13.90
2019-05-13T15:39:34.065Z,14.30
2019-05-13T15:42:04.058Z,14.60
2019-05-13T15:44:34.470Z,14.70
2019-05-13T15:47:20.213Z,14.70
2019-05-13T15:49:35.634Z,14.90
2019-05-13T15:52:05.335Z,15.20
2019-05-13T15:54:35.686Z,15.30
2019-05-13T15:57:05.792Z,15.30
2019-05-13T15:59:35.685Z,15.60
2019-05-13T16:02:05.278Z,15.80
2019-05-13T16:04:49.074Z,16.00
2019-05-13T16:07:07.794Z,16.20
2019-05-13T16:09:42.050Z,16.20
2019-05-13T16:12:12.352Z,16.10
2019-05-13T16:14:42.361Z,15.80
2019-05-13T16:17:12.530Z,15.50
2019-05-13T16:19:42.484Z,15.50
2019-05-13T16:22:12.320Z,15.30
2019-05-13T16:24:42.410Z,14.80
2019-05-13T16:27:12.230Z,14.80
2019-05-13T16:29:42.354Z,14.90
2019-05-13T16:32:12.288Z,15.00
2019-05-13T16:34:43.961Z,15.10
2019-05-13T16:37:13.747Z,15.20
2019-05-13T16:39:44.360Z,15.70
2019-05-13T16:42:14.322Z,15.30
2019-05-13T16:44:44.146Z,15.30
2019-05-13T16:47:13.683Z,15.40
2019-05-13T16:49:43.316Z,15.50
2019-05-13T16:52:12.954Z,15.70
2019-05-13T16:54:42.947Z,15.70
2019-05-13T16:57:12.572Z,15.80
2019-05-13T16:59:42.382Z,16.00
2019-05-13T17:02:12.585Z,16.10
2019-05-13T17:04:43.193Z,16.00
2019-05-13T17:07:12.789Z,15.90
2019-05-13T17:09:42.346Z,15.90
2019-05-13T17:12:15.624Z,16.00
2019-05-13T17:14:44.199Z,16.30
2019-05-13T17:17:13.771Z,16.20
2019-05-13T17:19:43.394Z,16.20
2019-05-13T17:22:13.325Z,16.40
2019-05-13T17:24:43.186Z,16.50
2019-05-13T17:27:12.834Z,16.60
2019-05-13T17:29:42.707Z,16.80
2019-05-13T17:32:12.629Z,17.10
2019-05-13T17:34:51.374Z,17.00
2019-05-13T17:37:19.149Z,16.90
2019-05-13T17:39:49.398Z,17.00
2019-05-13T17:42:21.321Z,17.20
2019-05-13T17:44:51.644Z,17.40
2019-05-13T17:47:22.068Z,17.50
2019-05-13T17:49:52.203Z,17.50
2019-05-13T17:52:22.355Z,17.70
2019-05-13T17:54:52.583Z,17.70
2019-05-13T17:57:22.906Z,18.30
2019-05-13T17:59:57.660Z,18.00
2019-05-13T18:02:27.454Z,18.10
2019-05-13T18:04:57.593Z,18.20
2019-05-13T18:07:27.202Z,18.20
2019-05-13T18:10:01.364Z,18.20
2019-05-13T18:12:30.216Z,18.30
2019-05-13T18:15:02.252Z,18.50
2019-05-13T18:17:31.289Z,18.50
2019-05-13T18:20:02.285Z,18.60
2019-05-13T18:22:33.578Z,18.50
2019-05-13T18:25:03.686Z,18.50
2019-05-13T18:27:33.898Z,18.50
2019-05-13T18:30:03.910Z,18.50
2019-05-13T18:32:33.838Z,18.50
2019-05-13T18:35:03.866Z,18.50
2019-05-13T18:37:33.762Z,18.40
2019-05-13T18:40:03.343Z,18.50
2019-05-13T18:42:33.126Z,18.50
2019-05-13T18:45:04.936Z,18.60
2019-05-13T18:47:35.477Z,18.60
2019-05-13T18:50:06.877Z,18.50
2019-05-13T18:52:36.768Z,18.60
2019-05-13T18:55:06.561Z,18.60
2019-05-13T18:57:36.202Z,18.70
2019-05-13T19:00:06.222Z,18.70
2019-05-13T19:02:35.940Z,18.80
2019-05-13T19:05:05.624Z,18.90
2019-05-13T19:07:35.181Z,18.90
2019-05-13T19:10:05.130Z,19.00
2019-05-13T19:12:36.259Z,19.10
2019-05-13T19:15:07.229Z,19.30
2019-05-13T19:17:36.910Z,19.30
2019-05-13T19:20:11.402Z,19.60
2019-05-13T19:22:41.278Z,19.60
2019-05-13T19:25:11.981Z,19.60
2019-05-13T19:27:41.769Z,19.80
2019-05-13T19:30:12.416Z,19.80
2019-05-13T19:32:42.126Z,20.00
2019-05-13T19:35:12.270Z,20.10
2019-05-13T19:37:43.321Z,20.20
2019-05-13T19:40:13.198Z,20.20
2019-05-13T19:42:43.499Z,20.30
2019-05-13T19:45:13.330Z,20.40
2019-05-13T19:47:42.975Z,20.50
2019-05-13T19:50:12.602Z,20.50
2019-05-13T19:52:42.463Z,20.70
2019-05-13T19:55:12.197Z,20.70
2019-05-13T19:57:42.476Z,20.80
2019-05-13T20:00:14.206Z,20.90
2019-05-13T20:02:43.936Z,20.90
2019-05-13T20:05:13.574Z,21.00
2019-05-13T20:07:43.837Z,21.30
2019-05-13T20:10:13.594Z,21.50
2019-05-13T20:12:43.235Z,21.60
2019-05-13T20:15:13.065Z,22.00
2019-05-13T20:17:42.762Z,22.20
2019-05-13T20:20:12.586Z,22.40
2019-05-13T20:22:42.453Z,22.40
2019-05-13T20:25:13.174Z,22.40
2019-05-13T20:27:43.281Z,22.50
2019-05-13T20:30:13.078Z,22.80
2019-05-13T20:32:42.720Z,23.00
2019-05-13T20:35:12.260Z,23.10
2019-05-13T20:37:42.193Z,23.00
2019-05-13T20:40:11.978Z,22.90
2019-05-13T20:42:41.958Z,22.90
2019-05-13T20:45:11.879Z,23.00
2019-05-13T20:47:42.125Z,23.10
2019-05-13T20:50:12.612Z,23.10
2019-05-13T20:52:42.281Z,23.30
2019-05-13T20:55:12.870Z,24.10
2019-05-13T20:57:42.436Z,24.00
2019-05-13T21:00:12.267Z,24.20
2019-05-13T21:02:42.097Z,24.70
2019-05-13T21:05:12.754Z,24.60
2019-05-13T21:07:42.493Z,24.80
2019-05-13T21:10:12.303Z,25.10
2019-05-13T21:12:42.182Z,25.30
2019-05-13T21:15:12.989Z,25.30
2019-05-13T21:17:43.180Z,25.80
2019-05-13T21:20:19.490Z,25.80
2019-05-13T21:22:44.331Z,25.90
2019-05-13T21:25:14.018Z,25.90
2019-05-13T21:27:43.895Z,26.00
2019-05-13T21:30:57.337Z,26.10
2019-05-13T21:33:24.905Z,26.10
2019-05-13T21:35:55.413Z,26.10
2019-05-13T21:38:25.333Z,26.30
2019-05-13T21:40:54.866Z,26.20
2019-05-13T21:43:24.570Z,26.40
2019-05-13T21:45:54.620Z,26.50
2019-05-13T21:48:24.405Z,26.70
2019-05-13T21:50:54.054Z,26.70
2019-05-13T21:53:24.571Z,26.80
2019-05-13T21:55:54.269Z,26.80
2019-05-13T21:58:23.802Z,26.80
2019-05-13T22:00:53.458Z,27.00
2019-05-13T22:03:24.105Z,26.90
2019-05-13T22:05:53.963Z,26.90
2019-05-13T22:08:23.570Z,27.30
2019-05-13T22:10:54.197Z,27.10
2019-05-13T22:13:23.722Z,27.00
2019-05-13T22:15:53.607Z,27.20
2019-05-13T22:18:23.287Z,27.50
2019-05-13T22:20:53.661Z,27.60
2019-05-13T22:23:23.450Z,28.20
2019-05-13T22:25:53.150Z,28.00
2019-05-13T22:28:23.653Z,28.00
2019-05-13T22:30:53.208Z,27.90
2019-05-13T22:33:22.735Z,28.00
2019-05-13T22:35:52.463Z,28.20
2019-05-13T22:38:22.021Z,28.30
2019-05-13T22:40:52.114Z,28.40
2019-05-13T22:43:21.849Z,28.40
2019-05-13T22:45:53.714Z,28.60
2019-05-13T22:48:23.599Z,28.60
2019-05-13T22:50:53.272Z,28.60
2019-05-13T22:53:23.079Z,28.80
2019-05-13T22:55:52.712Z,29.20
2019-05-13T22:58:22.641Z,29.30
2019-05-13T23:00:53.781Z,28.70
2019-05-13T23:03:23.602Z,28.70
2019-05-13T23:05:53.145Z,28.70
2019-05-13T23:08:22.662Z,28.70
2019-05-13T23:10:52.585Z,28.90
2019-05-13T23:13:22.564Z,29.00
2019-05-13T23:15:53.103Z,29.10
2019-05-13T23:18:22.623Z,29.30
2019-05-13T23:20:52.212Z,29.30
2019-05-13T23:23:22.233Z,29.40
2019-05-13T23:25:52.231Z,29.50
2019-05-13T23:28:21.755Z,29.50
2019-05-13T23:30:51.759Z,29.70
2019-05-13T23:33:21.972Z,29.80
2019-05-13T23:35:51.681Z,29.70
2019-05-13T23:38:21.519Z,30.00
2019-05-13T23:40:51.720Z,30.10
2019-05-13T23:43:21.882Z,30.00
2019-05-13T23:45:51.539Z,30.00
2019-05-13T23:48:21.615Z,30.10
2019-05-13T23:50:52.182Z,30.20
2019-05-13T23:53:22.334Z,30.20
2019-05-13T23:55:52.354Z,30.20
2019-05-13T23:58:22.041Z,30.00
